createdAt,value
2022-08-03T00:02:17.054Z,3.10
2022-08-03T00:04:44.567Z,2.45
2022-08-03T00:07:11.950Z,2.70
2022-08-03T00:09:39.304Z,2.42
2022-08-03T00:12:06.616Z,2.50
2022-08-03T00:14:33.951Z,2.40
2022-08-03T00:17:01.332Z,2.40
2022-08-03T00:19:28.718Z,2.30
2022-08-03T00:21:56.032Z,2.90
2022-08-03T00:24:23.399Z,2.80
2022-08-03T00:26:50.842Z,2.50
2022-08-03T00:29:18.228Z,2.50
2022-08-03T00:31:52.167Z,2.72
2022-08-03T00:34:34.548Z,2.70
2022-08-03T00:37:04.158Z,2.53
2022-08-03T00:39:31.471Z,2.83
2022-08-03T00:42:05.736Z,2.45
2022-08-03T00:44:33.081Z,2.67
2022-08-03T00:47:00.421Z,2.80
2022-08-03T00:49:28.485Z,2.60
2022-08-03T00:51:56.090Z,2.63
2022-08-03T00:54:25.129Z,2.78
2022-08-03T00:56:59.291Z,2.35
2022-08-03T00:59:27.831Z,2.47
2022-08-03T01:01:55.469Z,2.72
2022-08-03T01:04:22.905Z,2.40
2022-08-03T01:06:56.163Z,2.47
2022-08-03T01:09:23.540Z,2.22
2022-08-03T01:12:33.245Z,2.95
2022-08-03T01:15:29.125Z,2.30
2022-08-03T01:18:01.592Z,2.80
2022-08-03T01:20:33.427Z,2.53
2022-08-03T01:23:00.838Z,2.78
2022-08-03T01:26:06.924Z,2.33
2022-08-03T01:28:45.174Z,2.30
2022-08-03T01:31:15.004Z,2.55
2022-08-03T01:33:47.011Z,2.63
2022-08-03T01:36:22.200Z,2.38
2022-08-03T01:38:58.602Z,2.78
2022-08-03T01:41:31.090Z,2.28
2022-08-03T01:44:29.090Z,2.20
2022-08-03T01:46:49.990Z,2.60
2022-08-03T01:52:03.276Z,2.33
2022-08-03T01:54:36.253Z,3.05
2022-08-03T01:57:03.929Z,2.90
2022-08-03T01:59:34.558Z,2.63
2022-08-03T02:02:15.227Z,2.55
2022-08-03T02:04:52.797Z,2.60
2022-08-03T02:07:20.360Z,2.40
2022-08-03T02:09:50.888Z,3.15
2022-08-03T02:12:19.079Z,2.70
2022-08-03T02:14:48.772Z,2.58
2022-08-03T02:17:16.609Z,2.67
2022-08-03T02:19:44.744Z,2.70
2022-08-03T02:22:14.447Z,2.47
2022-08-03T02:24:42.179Z,3.10
2022-08-03T02:27:22.286Z,2.92
2022-08-03T02:29:55.167Z,2.90
2022-08-03T02:32:30.759Z,3.00
2022-08-03T02:35:00.774Z,2.70
2022-08-03T02:37:31.688Z,2.85
2022-08-03T02:40:02.730Z,2.88
2022-08-03T02:42:32.004Z,3.22
2022-08-03T02:45:01.986Z,2.33
2022-08-03T02:47:53.358Z,2.30
2022-08-03T02:50:19.288Z,3.30
2022-08-03T02:52:48.500Z,2.88
2022-08-03T02:55:18.091Z,2.90
2022-08-03T02:57:45.601Z,2.60
2022-08-03T03:00:13.555Z,2.72
2022-08-03T03:02:47.348Z,2.45
2022-08-03T03:05:55.240Z,2.80
2022-08-03T03:08:03.168Z,2.40
2022-08-03T03:10:45.317Z,2.60
2022-08-03T03:13:15.179Z,2.78
2022-08-03T03:15:44.266Z,2.70
2022-08-03T03:18:12.793Z,3.00
2022-08-03T03:20:40.968Z,2.70
2022-08-03T03:23:09.790Z,3.38
2022-08-03T03:25:37.275Z,2.78
2022-08-03T03:28:06.908Z,3.13
2022-08-03T03:30:34.671Z,2.95
2022-08-03T03:33:02.962Z,3.38
2022-08-03T03:35:30.452Z,3.42
2022-08-03T03:38:04.519Z,3.50
2022-08-03T03:40:31.911Z,3.00
2022-08-03T03:42:59.525Z,2.85
2022-08-03T03:45:27.492Z,3.20
2022-08-03T03:47:54.876Z,2.50
2022-08-03T03:50:24.085Z,3.33
2022-08-03T03:52:51.474Z,2.78
2022-08-03T03:55:19.104Z,3.20
2022-08-03T03:57:46.579Z,2.63
2022-08-03T04:00:15.498Z,3.28
2022-08-03T04:02:42.949Z,4.20
2022-08-03T04:05:29.273Z,2.80
2022-08-03T04:08:20.739Z,2.63
2022-08-03T04:11:01.633Z,2.50
2022-08-03T04:13:36.907Z,3.08
2022-08-03T04:16:05.126Z,2.90
2022-08-03T04:18:35.526Z,2.45
2022-08-03T04:21:06.316Z,3.60
2022-08-03T04:23:35.721Z,2.70
2022-08-03T04:26:03.867Z,2.80
2022-08-03T04:28:33.410Z,3.22
2022-08-03T04:31:03.050Z,2.90
2022-08-03T04:33:33.538Z,3.58
2022-08-03T04:36:06.486Z,3.30
2022-08-03T04:38:39.046Z,3.42
2022-08-03T04:41:07.726Z,3.42
2022-08-03T04:43:35.533Z,3.55
2022-08-03T04:46:04.529Z,2.80
2022-08-03T04:48:32.079Z,3.70
2022-08-03T04:51:00.892Z,2.67
2022-08-03T04:53:28.294Z,3.10
2022-08-03T04:55:55.625Z,3.15
2022-08-03T04:58:23.401Z,3.35
2022-08-03T05:00:52.165Z,2.80
2022-08-03T05:03:23.707Z,2.72
2022-08-03T05:06:09.511Z,2.78
2022-08-03T05:08:47.194Z,3.42
2022-08-03T05:11:18.247Z,2.67
2022-08-03T05:13:45.940Z,2.63
2022-08-03T05:16:14.030Z,3.03
2022-08-03T05:18:42.196Z,2.90
2022-08-03T05:21:16.966Z,2.95
2022-08-03T05:23:45.102Z,2.47
2022-08-03T05:26:12.533Z,2.72
2022-08-03T05:29:02.951Z,2.35
2022-08-03T05:31:30.371Z,2.92
2022-08-03T05:33:58.057Z,3.00
2022-08-03T05:36:25.653Z,2.28
2022-08-03T05:38:53.318Z,2.88
2022-08-03T05:41:36.564Z,2.80
2022-08-03T05:44:05.198Z,2.58
2022-08-03T05:46:32.971Z,2.53
2022-08-03T05:49:00.503Z,2.63
2022-08-03T05:51:28.944Z,2.78
2022-08-03T05:53:56.301Z,3.35
2022-08-03T05:56:26.489Z,2.88
2022-08-03T05:58:53.936Z,2.60
2022-08-03T06:01:22.094Z,3.15
2022-08-03T06:03:50.628Z,2.88
2022-08-03T06:06:18.110Z,2.53
2022-08-03T06:08:46.181Z,2.53
2022-08-03T06:11:13.728Z,2.50
2022-08-03T06:13:41.306Z,2.50
2022-08-03T06:16:08.848Z,2.72
2022-08-03T06:18:36.372Z,2.65
2022-08-03T06:21:15.721Z,2.63
2022-08-03T06:23:54.383Z,2.95
2022-08-03T06:26:27.840Z,2.47
2022-08-03T06:28:55.571Z,2.30
2022-08-03T06:31:32.721Z,2.78
2022-08-03T06:34:34.815Z,2.60
2022-08-03T06:36:52.181Z,2.38
2022-08-03T06:39:20.200Z,2.97
2022-08-03T06:41:47.577Z,2.40
2022-08-03T06:44:14.975Z,2.90
2022-08-03T06:46:43.382Z,3.00
2022-08-03T06:49:10.848Z,2.72
2022-08-03T06:52:06.263Z,2.78
2022-08-03T06:54:25.663Z,2.50
2022-08-03T06:56:53.157Z,2.60
2022-08-03T07:00:06.512Z,2.55
2022-08-03T07:02:07.637Z,2.15
2022-08-03T07:04:34.592Z,1.95
2022-08-03T07:07:02.127Z,2.25
2022-08-03T07:09:29.646Z,2.28
2022-08-03T07:11:57.200Z,1.88
2022-08-03T07:14:24.799Z,2.35
2022-08-03T07:16:52.171Z,2.10
2022-08-03T07:19:19.597Z,2.17
2022-08-03T07:21:47.383Z,2.03
2022-08-03T07:24:15.113Z,1.88
2022-08-03T07:26:42.482Z,2.25
2022-08-03T07:34:10.079Z,2.13
2022-08-03T07:36:37.282Z,2.00
2022-08-03T07:39:17.556Z,2.22
2022-08-03T07:41:46.300Z,2.20
2022-08-03T07:44:13.910Z,2.05
2022-08-03T07:46:41.250Z,2.10
2022-08-03T07:49:09.175Z,2.30
2022-08-03T07:51:36.614Z,2.00
2022-08-03T07:54:04.293Z,2.20
2022-08-03T07:56:32.232Z,1.98
2022-08-03T07:58:59.852Z,1.88
2022-08-03T08:01:27.420Z,1.98
2022-08-03T08:03:54.797Z,2.05
2022-08-03T08:06:22.330Z,1.63
2022-08-03T08:08:49.718Z,2.05
2022-08-03T08:11:17.085Z,2.40
2022-08-03T08:13:44.667Z,2.28
2022-08-03T08:16:11.814Z,2.20
2022-08-03T08:18:39.272Z,2.28
2022-08-03T08:21:06.658Z,2.45
2022-08-03T08:26:10.651Z,1.75
2022-08-03T08:28:38.077Z,2.10
2022-08-03T08:31:05.510Z,2.05
2022-08-03T08:34:02.552Z,2.35
2022-08-03T08:36:22.109Z,1.88
2022-08-03T08:38:49.115Z,2.85
2022-08-03T08:41:16.361Z,2.22
2022-08-03T08:43:43.895Z,2.20
2022-08-03T08:46:22.837Z,2.30
2022-08-03T08:51:20.931Z,2.53
2022-08-03T08:53:53.760Z,2.65
2022-08-03T08:56:25.661Z,2.72
2022-08-03T08:58:58.079Z,2.95
2022-08-03T09:01:25.416Z,2.63
2022-08-03T09:03:54.189Z,2.13
2022-08-03T09:06:23.095Z,2.35
2022-08-03T09:08:50.138Z,2.80
2022-08-03T09:11:22.428Z,2.53
2022-08-03T09:14:10.415Z,2.55
2022-08-03T09:17:02.771Z,2.20
2022-08-03T09:19:31.412Z,2.33
2022-08-03T09:22:16.652Z,3.05
2022-08-03T09:25:22.638Z,2.28
2022-08-03T09:27:48.020Z,2.90
2022-08-03T09:30:33.568Z,2.88
2022-08-03T09:33:08.433Z,2.40
2022-08-03T09:35:53.723Z,2.38
2022-08-03T09:38:28.390Z,2.20
2022-08-03T09:40:59.819Z,2.50
2022-08-03T09:43:28.271Z,2.50
2022-08-03T09:46:05.756Z,4.03
2022-08-03T09:48:36.889Z,5.00
2022-08-03T09:51:12.847Z,3.40
2022-08-03T09:53:59.239Z,3.20
2022-08-03T09:56:43.313Z,2.67
2022-08-03T09:59:11.785Z,2.60
2022-08-03T10:01:41.841Z,2.70
2022-08-03T10:04:19.663Z,3.03
2022-08-03T10:07:01.442Z,2.97
2022-08-03T10:09:28.388Z,3.10
2022-08-03T10:11:55.848Z,3.00
2022-08-03T10:14:23.618Z,2.63
2022-08-03T10:16:50.678Z,2.55
2022-08-03T10:19:18.282Z,1.88
2022-08-03T10:21:53.672Z,2.25
2022-08-03T10:24:27.230Z,1.98
2022-08-03T10:27:04.517Z,1.70
2022-08-03T10:29:38.696Z,1.88
2022-08-03T10:32:15.142Z,1.42
2022-08-03T10:34:44.630Z,2.03
2022-08-03T10:37:14.441Z,1.60
2022-08-03T10:39:53.453Z,1.90
2022-08-03T10:42:24.949Z,1.98
2022-08-03T10:45:00.719Z,2.00
2022-08-03T10:47:28.202Z,2.05
2022-08-03T10:49:55.827Z,1.88
2022-08-03T10:52:33.895Z,2.42
2022-08-03T10:56:05.757Z,1.98
2022-08-03T10:58:53.237Z,1.52
2022-08-03T11:01:59.144Z,2.50
2022-08-03T11:04:29.823Z,1.98
2022-08-03T11:07:25.773Z,1.73
2022-08-03T11:09:56.780Z,1.88
2022-08-03T11:12:32.879Z,2.15
2022-08-03T11:15:02.402Z,1.83
2022-08-03T11:17:30.230Z,1.90
2022-08-03T11:19:58.625Z,2.50
2022-08-03T11:22:28.381Z,2.03
2022-08-03T11:24:57.188Z,2.05
2022-08-03T11:27:26.797Z,1.92
2022-08-03T11:29:56.917Z,2.25
2022-08-03T11:35:18.625Z,2.30
2022-08-03T11:38:04.375Z,1.70
2022-08-03T11:40:35.705Z,1.75
2022-08-03T11:43:04.351Z,1.83
2022-08-03T11:45:31.531Z,1.67
2022-08-03T11:48:12.615Z,1.35
2022-08-03T11:50:39.688Z,1.77
2022-08-03T11:53:07.717Z,1.80
2022-08-03T11:55:39.132Z,2.40
2022-08-03T11:59:01.690Z,1.40
2022-08-03T12:00:53.723Z,1.70
2022-08-03T12:03:21.389Z,1.30
2022-08-03T12:05:54.694Z,1.58
2022-08-03T12:08:28.358Z,1.73
2022-08-03T12:10:57.076Z,1.67
2022-08-03T12:14:44.169Z,1.60
2022-08-03T12:16:21.446Z,1.90
2022-08-03T12:19:00.106Z,1.63
2022-08-03T12:21:28.377Z,1.67
2022-08-03T12:24:03.756Z,1.77
2022-08-03T12:26:42.833Z,1.80
2022-08-03T12:29:25.744Z,1.50
2022-08-03T12:31:53.684Z,1.73
2022-08-03T12:34:20.720Z,1.60
2022-08-03T12:36:56.604Z,1.98
2022-08-03T12:39:25.665Z,1.23
2022-08-03T12:41:56.908Z,1.85
2022-08-03T12:44:36.063Z,1.98
2022-08-03T12:47:04.569Z,1.60
2022-08-03T12:49:47.917Z,2.17
2022-08-03T12:52:16.157Z,1.88
2022-08-03T12:54:45.022Z,1.60
2022-08-03T12:57:15.618Z,1.45
2022-08-03T12:59:53.551Z,2.20
2022-08-03T13:02:26.209Z,1.83
2022-08-03T13:04:54.786Z,2.33
2022-08-03T13:07:23.270Z,1.67
2022-08-03T13:09:55.927Z,1.83
2022-08-03T13:12:24.626Z,1.63
2022-08-03T13:15:01.031Z,1.77
2022-08-03T13:17:28.927Z,2.85
2022-08-03T13:19:56.466Z,1.90
2022-08-03T13:22:25.426Z,1.75
2022-08-03T13:24:55.977Z,1.70
2022-08-03T13:28:03.287Z,1.92
2022-08-03T13:30:10.722Z,1.30
2022-08-03T13:32:37.803Z,1.50
2022-08-03T13:35:05.684Z,1.75
2022-08-03T13:37:33.245Z,1.60
2022-08-03T13:40:03.278Z,1.50
2022-08-03T13:42:33.510Z,1.67
2022-08-03T13:45:01.351Z,2.05
2022-08-03T13:47:28.873Z,1.70
2022-08-03T13:50:01.940Z,1.60
2022-08-03T13:52:32.427Z,1.70
2022-08-03T13:55:00.459Z,1.98
2022-08-03T13:58:03.614Z,1.70
2022-08-03T14:00:16.003Z,2.08
2022-08-03T14:02:57.343Z,2.17
2022-08-03T14:05:32.015Z,2.08
2022-08-03T14:08:04.297Z,1.95
2022-08-03T14:10:33.928Z,1.83
2022-08-03T14:13:01.444Z,3.53
2022-08-03T14:15:28.878Z,4.05
2022-08-03T14:17:58.581Z,3.05
2022-08-03T14:20:37.359Z,2.80
2022-08-03T14:23:07.051Z,3.20
2022-08-03T14:25:43.220Z,1.98
2022-08-03T14:28:22.664Z,2.47
2022-08-03T14:30:54.074Z,2.03
2022-08-03T14:33:21.548Z,2.40
2022-08-03T14:35:49.611Z,1.85
2022-08-03T14:38:17.726Z,2.28
2022-08-03T14:40:45.065Z,2.00
2022-08-03T14:43:12.542Z,2.00
2022-08-03T14:45:43.079Z,1.38
2022-08-03T14:50:31.595Z,1.60
2022-08-03T14:50:57.564Z,2.08
2022-08-03T14:53:24.874Z,1.85
2022-08-03T14:55:53.441Z,1.70
2022-08-03T14:58:26.270Z,1.83
2022-08-03T15:00:54.791Z,1.52
2022-08-03T15:03:25.882Z,1.90
2022-08-03T15:05:55.238Z,1.85
2022-08-03T15:08:23.872Z,1.60
2022-08-03T15:10:51.292Z,1.63
2022-08-03T15:13:19.649Z,1.80
2022-08-03T15:15:47.783Z,1.73
2022-08-03T15:18:15.212Z,1.77
2022-08-03T15:20:45.373Z,1.77
2022-08-03T15:23:14.896Z,1.67
2022-08-03T15:26:29.453Z,1.70
2022-08-03T15:28:30.177Z,1.60
2022-08-03T15:30:57.848Z,2.65
2022-08-03T15:33:25.226Z,1.65
2022-08-03T15:35:53.077Z,1.85
2022-08-03T15:38:22.986Z,1.70
2022-08-03T15:40:54.855Z,1.80
2022-08-03T15:43:23.139Z,1.67
2022-08-03T15:46:19.139Z,1.50
2022-08-03T15:48:38.148Z,1.60
2022-08-03T15:51:05.991Z,2.15
2022-08-03T15:53:33.743Z,1.75
2022-08-03T15:56:05.227Z,1.80
2022-08-03T15:59:10.239Z,1.83
2022-08-03T16:01:25.777Z,2.20
2022-08-03T16:03:53.301Z,1.42
2022-08-03T16:06:34.850Z,1.52
2022-08-03T16:09:05.221Z,2.20
2022-08-03T16:11:32.734Z,1.65
2022-08-03T16:14:12.448Z,1.40
2022-08-03T16:16:47.407Z,1.60
2022-08-03T16:19:14.425Z,1.70
2022-08-03T16:21:48.187Z,1.90
2022-08-03T16:24:17.493Z,1.40
2022-08-03T16:26:52.612Z,2.00
2022-08-03T16:29:23.060Z,1.60
2022-08-03T16:31:52.386Z,1.60
2022-08-03T16:34:20.074Z,1.50
2022-08-03T16:36:47.109Z,1.63
2022-08-03T16:39:14.207Z,1.67
2022-08-03T16:42:00.259Z,4.07
2022-08-03T16:44:30.732Z,3.22
2022-08-03T16:49:54.429Z,3.08
2022-08-03T16:52:13.469Z,2.72
2022-08-03T16:54:41.044Z,2.10
2022-08-03T16:57:08.801Z,2.38
2022-08-03T16:59:36.726Z,2.30
2022-08-03T17:02:19.729Z,1.80
2022-08-03T17:04:47.211Z,2.20
2022-08-03T17:07:14.638Z,2.03
2022-08-03T17:09:44.683Z,2.00
2022-08-03T17:14:40.760Z,1.88
2022-08-03T17:17:24.934Z,2.10
2022-08-03T17:19:55.267Z,1.85
2022-08-03T17:22:28.317Z,1.60
2022-08-03T17:24:57.997Z,1.90
2022-08-03T17:28:48.844Z,1.90
2022-08-03T17:30:19.023Z,1.60
2022-08-03T17:32:56.883Z,1.95
2022-08-03T17:35:36.935Z,1.48
2022-08-03T17:38:10.314Z,1.85
2022-08-03T17:40:48.118Z,2.00
2022-08-03T17:44:13.938Z,1.50
2022-08-03T17:46:10.627Z,1.92
2022-08-03T17:48:41.490Z,1.88
2022-08-03T17:51:26.531Z,1.73
2022-08-03T17:54:19.992Z,1.98
2022-08-03T17:56:48.566Z,1.70
2022-08-03T17:59:52.125Z,1.70
2022-08-03T18:02:47.817Z,2.10
2022-08-03T18:05:17.576Z,1.95
2022-08-03T18:08:03.584Z,1.80
2022-08-03T18:10:36.336Z,2.00
2022-08-03T18:13:24.423Z,1.80
2022-08-03T18:16:02.668Z,1.60
2022-08-03T18:18:36.561Z,1.80
2022-08-03T18:21:09.405Z,1.60
2022-08-03T18:23:44.842Z,1.63
2022-08-03T18:26:17.599Z,1.33
2022-08-03T18:28:47.105Z,1.42
2022-08-03T18:32:00.549Z,1.73
2022-08-03T18:34:17.078Z,1.90
2022-08-03T18:36:54.753Z,1.80
2022-08-03T18:39:23.989Z,1.35
2022-08-03T18:41:52.599Z,1.60
2022-08-03T18:44:37.746Z,1.45
2022-08-03T18:47:23.140Z,1.67
2022-08-03T18:50:19.203Z,1.50
2022-08-03T18:52:58.145Z,1.73
2022-08-03T18:55:35.521Z,1.58
2022-08-03T18:58:18.566Z,1.75
2022-08-03T19:01:03.389Z,1.50
2022-08-03T19:03:43.207Z,1.55
2022-08-03T19:06:23.222Z,1.70
2022-08-03T19:09:04.842Z,1.98
2022-08-03T19:12:12.395Z,1.42
2022-08-03T19:14:34.666Z,1.67
2022-08-03T19:17:07.891Z,1.45
2022-08-03T19:22:27.384Z,1.40
2022-08-03T19:24:57.937Z,1.80
2022-08-03T19:27:26.907Z,1.63
2022-08-03T19:30:00.646Z,1.70
2022-08-03T19:32:31.476Z,1.80
2022-08-03T19:35:00.204Z,1.58
2022-08-03T19:37:38.731Z,2.10
2022-08-03T19:42:59.878Z,2.10
2022-08-03T19:46:05.440Z,2.50
2022-08-03T19:48:29.430Z,2.35
2022-08-03T19:50:57.914Z,2.72
2022-08-03T19:53:34.637Z,2.60
2022-08-03T19:56:04.998Z,2.53
2022-08-03T19:58:32.878Z,2.30
2022-08-03T20:01:00.375Z,2.35
2022-08-03T20:03:48.614Z,2.08
2022-08-03T20:06:18.419Z,2.47
2022-08-03T20:08:51.506Z,2.70
2022-08-03T20:11:19.211Z,2.30
2022-08-03T20:13:49.115Z,2.55
2022-08-03T20:16:16.137Z,2.92
2022-08-03T20:18:43.553Z,3.17
2022-08-03T20:21:15.538Z,2.97
2022-08-03T20:24:01.612Z,2.85
2022-08-03T20:26:30.394Z,3.15
2022-08-03T20:29:09.048Z,3.17
2022-08-03T20:31:37.620Z,3.08
2022-08-03T20:34:06.447Z,2.60
2022-08-03T20:36:34.001Z,2.60
2022-08-03T20:39:01.110Z,2.50
2022-08-03T20:41:34.747Z,2.30
2022-08-03T20:44:26.172Z,2.78
2022-08-03T20:47:02.995Z,2.58
2022-08-03T20:49:30.511Z,3.45
2022-08-03T20:52:18.618Z,2.97
2022-08-03T20:54:47.897Z,4.93
2022-08-03T20:57:16.531Z,3.42
2022-08-03T21:02:30.541Z,4.57
2022-08-03T21:05:03.279Z,3.05
2022-08-03T21:08:03.860Z,3.40
2022-08-03T21:10:30.124Z,3.13
2022-08-03T21:13:09.931Z,1.45
2022-08-03T21:13:22.696Z,2.88
2022-08-03T21:16:13.101Z,3.53
2022-08-03T21:18:49.474Z,4.45
2022-08-03T21:21:19.166Z,3.35
2022-08-03T21:23:50.164Z,4.03
2022-08-03T21:26:22.826Z,3.38
2022-08-03T21:28:52.310Z,3.30
2022-08-03T21:31:24.501Z,4.00
2022-08-03T21:33:59.711Z,3.20
2022-08-03T21:36:28.891Z,3.13
2022-08-03T21:38:57.429Z,4.50
2022-08-03T21:41:30.126Z,4.43
2022-08-03T21:43:58.785Z,11.32
2022-08-03T21:46:29.625Z,7.15
2022-08-03T21:50:05.120Z,5.53
2022-08-03T21:51:50.574Z,5.47
2022-08-03T21:54:21.306Z,5.13
2022-08-03T21:56:51.075Z,4.72
2022-08-03T21:59:20.204Z,5.55
2022-08-03T22:01:49.245Z,5.60
2022-08-03T22:04:50.144Z,7.18
2022-08-03T22:07:10.375Z,6.30
2022-08-03T22:09:37.922Z,5.70
2022-08-03T22:12:05.646Z,5.70
2022-08-03T22:14:33.471Z,6.70
2022-08-03T22:17:03.395Z,5.82
2022-08-03T22:19:33.844Z,6.20
2022-08-03T22:22:04.593Z,6.43
2022-08-03T22:24:32.756Z,8.07
2022-08-03T22:27:20.302Z,5.65
2022-08-03T22:29:49.153Z,7.35
2022-08-03T22:32:16.530Z,6.28
2022-08-03T22:34:46.810Z,7.32
2022-08-03T22:37:16.544Z,7.03
2022-08-03T22:39:44.696Z,8.13
2022-08-03T22:42:12.547Z,8.63
2022-08-03T22:44:40.102Z,9.88
2022-08-03T22:47:07.535Z,8.15
2022-08-03T22:49:36.176Z,10.77
2022-08-03T22:52:03.531Z,12.15
2022-08-03T22:54:32.927Z,11.45
2022-08-03T22:57:00.499Z,9.52
2022-08-03T22:59:40.097Z,8.13
2022-08-03T23:02:20.644Z,8.85
2022-08-03T23:04:52.829Z,6.97
2022-08-03T23:07:35.801Z,5.78
2022-08-03T23:10:06.978Z,5.25
2022-08-03T23:12:36.468Z,4.22
2022-08-03T23:15:08.961Z,4.90
2022-08-03T23:17:57.584Z,4.85
2022-08-03T23:20:26.658Z,4.07
2022-08-03T23:22:54.653Z,4.28
2022-08-03T23:25:22.132Z,4.45
2022-08-03T23:28:05.432Z,4.57
2022-08-03T23:30:37.194Z,3.60
2022-08-03T23:33:04.894Z,3.53
2022-08-03T23:36:28.147Z,4.63
2022-08-03T23:38:37.551Z,4.25
2022-08-03T23:41:07.116Z,5.15
2022-08-03T23:43:51.264Z,4.65
2022-08-03T23:46:23.884Z,4.63
2022-08-03T23:48:51.426Z,4.28
2022-08-03T23:51:35.593Z,4.65
2022-08-03T23:54:33.220Z,5.55
2022-08-03T23:57:03.315Z,4.90
2022-08-03T23:59:30.662Z,5.35
